createdAt,value
2023-05-16T00:01:36.033Z,102062.72
2023-05-16T00:04:04.746Z,102073.59
2023-05-16T00:06:33.564Z,102064.06
2023-05-16T00:09:02.273Z,102069.00
2023-05-16T00:11:30.698Z,102072.09
2023-05-16T00:13:59.533Z,102070.91
2023-05-16T00:16:30.214Z,102066.94
2023-05-16T00:19:01.424Z,102076.25
2023-05-16T00:21:30.057Z,102071.03
2023-05-16T00:23:58.831Z,102075.34
2023-05-16T00:26:27.925Z,102077.22
2023-05-16T00:28:57.895Z,102081.34
2023-05-16T00:31:26.913Z,102079.97
2023-05-16T00:33:55.981Z,102075.03
2023-05-16T00:36:26.084Z,102069.88
2023-05-16T00:38:54.587Z,102075.13
2023-05-16T00:41:23.874Z,102077.56
2023-05-16T00:43:55.504Z,102088.41
2023-05-16T00:46:26.864Z,102079.59
2023-05-16T00:48:57.321Z,102075.81
2023-05-16T00:51:31.437Z,102071.31
2023-05-16T00:54:01.286Z,102071.09
2023-05-16T00:56:30.321Z,102061.91
2023-05-16T00:58:59.577Z,102063.97
2023-05-16T01:01:29.869Z,102068.69
2023-05-16T01:04:00.925Z,102085.38
2023-05-16T01:06:31.160Z,102077.09
2023-05-16T01:09:00.419Z,102075.50
2023-05-16T01:11:41.509Z,102072.38
2023-05-16T01:14:25.642Z,102077.75
2023-05-16T01:17:07.677Z,102076.69
2023-05-16T01:19:58.010Z,102071.78
2023-05-16T01:22:47.696Z,102079.22
2023-05-16T01:25:32.723Z,102077.56
2023-05-16T01:28:03.845Z,102079.03
2023-05-16T01:30:36.919Z,102086.59
2023-05-16T01:33:06.303Z,102078.44
2023-05-16T01:35:36.926Z,102087.13
2023-05-16T01:38:17.369Z,102091.94
2023-05-16T01:40:54.545Z,102086.34
2023-05-16T01:43:34.769Z,102091.25
2023-05-16T01:46:12.342Z,102092.94
2023-05-16T01:49:03.159Z,102085.56
2023-05-16T01:51:34.915Z,102089.75
2023-05-16T01:54:12.526Z,102088.72
2023-05-16T01:56:46.226Z,102093.53
2023-05-16T01:59:16.570Z,102094.41
2023-05-16T02:01:45.075Z,102100.34
2023-05-16T02:04:15.248Z,102101.22
2023-05-16T02:06:43.935Z,102101.91
2023-05-16T02:09:12.662Z,102096.47
2023-05-16T02:11:40.978Z,102097.06
2023-05-16T02:14:11.899Z,102101.63
2023-05-16T02:16:41.784Z,102111.34
2023-05-16T02:19:10.714Z,102102.31
2023-05-16T02:21:39.367Z,102090.72
2023-05-16T02:24:09.800Z,102094.50
2023-05-16T02:26:39.563Z,102105.31
2023-05-16T02:29:11.398Z,102094.56
2023-05-16T02:31:43.287Z,102106.06
2023-05-16T02:34:12.134Z,102093.22
2023-05-16T02:36:40.427Z,102103.25
2023-05-16T02:39:10.355Z,102100.28
2023-05-16T02:41:39.220Z,102106.53
2023-05-16T02:44:07.736Z,102113.78
2023-05-16T02:46:36.917Z,102111.06
2023-05-16T02:49:07.344Z,102118.81
2023-05-16T02:51:36.437Z,102106.31
2023-05-16T02:54:05.052Z,102115.03
2023-05-16T02:56:33.596Z,102118.59
2023-05-16T02:59:02.310Z,102108.97
2023-05-16T03:01:33.350Z,102121.06
2023-05-16T03:04:01.969Z,102109.66
2023-05-16T03:06:32.065Z,102118.50
2023-05-16T03:09:00.821Z,102112.91
2023-05-16T03:11:29.272Z,102120.94
2023-05-16T03:14:02.065Z,102118.00
2023-05-16T03:16:30.821Z,102122.84
2023-05-16T03:18:59.403Z,102122.75
2023-05-16T03:21:28.913Z,102131.06
2023-05-16T03:24:02.726Z,102119.03
2023-05-16T03:26:33.169Z,102118.38
2023-05-16T03:29:02.368Z,102127.72
2023-05-16T03:31:34.858Z,102125.06
2023-05-16T03:34:03.989Z,102130.25
2023-05-16T03:36:32.348Z,102140.22
2023-05-16T03:39:03.681Z,102137.28
2023-05-16T03:41:32.276Z,102147.72
2023-05-16T03:44:04.084Z,102137.81
2023-05-16T03:46:34.122Z,102143.00
2023-05-16T03:49:04.050Z,102135.97
2023-05-16T03:51:34.102Z,102133.34
2023-05-16T03:54:05.539Z,102136.75
2023-05-16T03:56:35.464Z,102147.19
2023-05-16T03:59:10.812Z,102142.00
2023-05-16T04:01:39.499Z,102145.91
2023-05-16T04:04:09.368Z,102146.25
2023-05-16T04:06:39.253Z,102145.78
2023-05-16T04:09:10.195Z,102154.88
2023-05-16T04:11:40.425Z,102148.56
2023-05-16T04:14:09.193Z,102153.38
2023-05-16T04:16:40.821Z,102149.25
2023-05-16T04:19:10.157Z,102150.78
2023-05-16T04:21:40.099Z,102153.75
2023-05-16T04:24:13.348Z,102169.75
2023-05-16T04:26:45.640Z,102161.28
2023-05-16T04:29:15.721Z,102158.72
2023-05-16T04:31:47.417Z,102161.78
2023-05-16T04:34:17.462Z,102169.44
2023-05-16T04:41:59.594Z,102172.38
2023-05-16T04:44:32.156Z,102169.66
2023-05-16T04:47:01.053Z,102179.31
2023-05-16T04:49:30.708Z,102178.72
2023-05-16T04:52:01.259Z,102183.22
2023-05-16T04:54:38.791Z,102185.97
2023-05-16T04:57:09.229Z,102189.09
2023-05-16T04:59:39.232Z,102187.25
2023-05-16T05:02:08.822Z,102192.06
2023-05-16T05:04:39.104Z,102203.34
2023-05-16T05:07:09.816Z,102200.72
2023-05-16T05:09:40.488Z,102197.41
2023-05-16T05:12:13.851Z,102194.06
2023-05-16T05:14:44.812Z,102199.66
2023-05-16T05:17:15.324Z,102204.94
2023-05-16T05:19:46.380Z,102198.13
2023-05-16T05:22:17.946Z,102197.09
2023-05-16T05:24:48.742Z,102199.31
2023-05-16T05:27:22.361Z,102197.63
2023-05-16T05:29:51.617Z,102206.53
2023-05-16T05:32:23.070Z,102204.34
2023-05-16T05:34:54.436Z,102203.56
2023-05-16T05:37:27.784Z,102203.03
2023-05-16T05:40:05.734Z,102203.34
2023-05-16T05:42:36.946Z,102201.28
2023-05-16T05:45:11.521Z,102210.06
2023-05-16T05:47:40.625Z,102216.16
2023-05-16T05:50:13.329Z,102219.38
2023-05-16T05:52:42.514Z,102220.84
2023-05-16T05:55:13.165Z,102225.56
2023-05-16T05:57:46.912Z,102225.84
2023-05-16T06:00:17.818Z,102229.56
2023-05-16T06:02:47.337Z,102229.63
2023-05-16T06:05:16.833Z,102235.53
2023-05-16T06:07:46.408Z,102228.13
2023-05-16T06:10:15.558Z,102230.41
2023-05-16T06:12:47.469Z,102236.75
2023-05-16T06:15:17.791Z,102232.03
2023-05-16T06:17:46.651Z,102240.31
2023-05-16T06:20:17.408Z,102237.16
2023-05-16T06:22:46.542Z,102238.25
2023-05-16T06:25:18.407Z,102241.94
2023-05-16T06:27:54.774Z,102254.19
2023-05-16T06:30:25.189Z,102242.13
2023-05-16T06:32:57.186Z,102250.50
2023-05-16T06:35:28.998Z,102245.75
2023-05-16T06:37:58.114Z,102250.44
2023-05-16T06:40:33.314Z,102252.25
2023-05-16T06:43:09.201Z,102255.72
2023-05-16T06:45:38.512Z,102250.03
2023-05-16T06:48:09.767Z,102258.56
2023-05-16T06:50:39.117Z,102253.16
2023-05-16T06:53:12.349Z,102258.06
2023-05-16T06:55:42.061Z,102253.06
2023-05-16T06:58:14.142Z,102249.16
2023-05-16T07:00:44.784Z,102247.53
2023-05-16T07:03:17.427Z,102257.69
2023-05-16T07:05:54.059Z,102256.81
2023-05-16T07:08:25.885Z,102256.16
2023-05-16T07:10:55.725Z,102255.91
2023-05-16T07:13:26.062Z,102252.09
2023-05-16T07:15:57.560Z,102252.69
2023-05-16T07:18:27.530Z,102259.09
2023-05-16T07:20:56.660Z,102262.59
2023-05-16T07:23:25.761Z,102262.03
2023-05-16T07:25:56.057Z,102265.16
2023-05-16T07:28:28.668Z,102270.59
2023-05-16T07:30:58.917Z,102259.53
2023-05-16T07:33:31.360Z,102272.19
2023-05-16T07:36:15.513Z,102268.38
2023-05-16T07:38:52.140Z,102267.91
2023-05-16T07:41:24.547Z,102274.41
2023-05-16T07:43:56.351Z,102265.09
2023-05-16T07:46:26.416Z,102268.97
2023-05-16T07:48:55.145Z,102265.28
2023-05-16T07:51:24.446Z,102264.38
2023-05-16T07:53:53.339Z,102266.75
2023-05-16T07:56:24.074Z,102258.16
2023-05-16T07:58:54.026Z,102274.78
2023-05-16T08:01:41.229Z,102268.25
2023-05-16T08:04:16.551Z,102270.41
2023-05-16T08:06:47.117Z,102267.53
2023-05-16T08:09:15.939Z,102275.84
2023-05-16T08:11:46.414Z,102270.53
2023-05-16T08:14:17.532Z,102276.09
2023-05-16T08:16:51.138Z,102273.63
2023-05-16T08:19:23.896Z,102280.88
2023-05-16T08:21:53.495Z,102272.25
2023-05-16T08:24:23.261Z,102282.91
2023-05-16T08:26:53.042Z,102279.56
2023-05-16T08:29:23.158Z,102272.19
2023-05-16T08:31:54.228Z,102274.44
2023-05-16T08:34:23.173Z,102276.50
2023-05-16T08:36:55.584Z,102277.06
2023-05-16T08:39:26.478Z,102288.00
2023-05-16T08:41:56.120Z,102284.50
2023-05-16T08:44:28.205Z,102279.69
2023-05-16T08:47:04.628Z,102276.50
2023-05-16T08:49:36.501Z,102282.72
2023-05-16T08:52:09.821Z,102277.13
2023-05-16T08:54:41.257Z,102281.69
2023-05-16T08:57:15.158Z,102290.13
2023-05-16T08:59:44.991Z,102285.16
2023-05-16T09:02:16.790Z,102279.91
2023-05-16T09:04:49.091Z,102288.50
2023-05-16T09:07:19.368Z,102283.13
2023-05-16T09:09:50.070Z,102279.59
2023-05-16T09:12:22.870Z,102280.44
2023-05-16T09:14:53.972Z,102276.53
2023-05-16T09:17:36.337Z,102270.44
2023-05-16T09:20:14.467Z,102284.00
2023-05-16T09:22:56.511Z,102288.94
2023-05-16T09:25:31.500Z,102288.44
2023-05-16T09:28:03.802Z,102294.25
2023-05-16T09:30:39.556Z,102290.47
2023-05-16T09:33:12.164Z,102286.13
2023-05-16T09:35:45.640Z,102290.00
2023-05-16T09:38:20.230Z,102289.78
2023-05-16T09:40:50.676Z,102297.22
2023-05-16T09:43:20.820Z,102286.91
2023-05-16T09:45:51.751Z,102290.09
2023-05-16T09:48:29.141Z,102286.41
2023-05-16T09:51:03.557Z,102299.91
2023-05-16T09:53:34.768Z,102290.69
2023-05-16T09:56:08.099Z,102307.56
2023-05-16T09:58:40.230Z,102301.25
2023-05-16T10:01:17.361Z,102301.97
2023-05-16T10:03:52.376Z,102304.94
2023-05-16T10:06:24.498Z,102304.09
2023-05-16T10:08:57.842Z,102303.75
2023-05-16T10:11:29.177Z,102319.09
2023-05-16T10:13:59.227Z,102316.91
2023-05-16T10:16:29.987Z,102312.72
2023-05-16T10:19:03.459Z,102301.56
2023-05-16T10:21:36.190Z,102297.16
2023-05-16T10:24:13.003Z,102297.47
2023-05-16T10:26:44.145Z,102295.63
2023-05-16T10:29:15.857Z,102302.47
2023-05-16T10:31:47.876Z,102297.47
2023-05-16T10:34:23.986Z,102302.97
2023-05-16T10:37:04.128Z,102301.28
2023-05-16T10:39:37.833Z,102304.97
2023-05-16T10:42:14.501Z,102299.56
2023-05-16T10:44:54.619Z,102289.78
2023-05-16T10:47:32.911Z,102297.06
2023-05-16T10:50:05.647Z,102292.88
2023-05-16T10:52:40.894Z,102298.91
2023-05-16T10:55:11.037Z,102300.00
2023-05-16T10:57:41.153Z,102302.66
2023-05-16T11:00:24.525Z,102297.53
2023-05-16T11:02:53.610Z,102298.06
2023-05-16T11:05:26.502Z,102299.59
2023-05-16T11:08:07.159Z,102298.09
2023-05-16T11:10:39.346Z,102300.97
2023-05-16T11:13:11.414Z,102306.28
2023-05-16T11:15:43.489Z,102304.53
2023-05-16T11:18:20.083Z,102300.59
2023-05-16T11:20:55.602Z,102298.56
2023-05-16T11:23:27.990Z,102294.41
2023-05-16T11:26:01.875Z,102306.53
2023-05-16T11:28:31.798Z,102306.13
2023-05-16T11:31:05.587Z,102310.13
2023-05-16T11:33:37.705Z,102305.72
2023-05-16T11:36:16.732Z,102304.16
2023-05-16T11:39:00.673Z,102317.13
2023-05-16T11:41:31.576Z,102310.59
2023-05-16T11:44:01.286Z,102310.59
2023-05-16T11:46:33.857Z,102312.59
2023-05-16T11:49:05.959Z,102315.84
2023-05-16T11:51:37.638Z,102316.22
2023-05-16T11:54:10.572Z,102317.81
2023-05-16T11:56:44.194Z,102311.63
2023-05-16T11:59:13.265Z,102314.59
2023-05-16T12:01:43.105Z,102312.66
2023-05-16T12:04:14.549Z,102314.84
2023-05-16T12:06:47.804Z,102317.31
2023-05-16T12:09:21.015Z,102312.22
2023-05-16T12:11:52.986Z,102316.81
2023-05-16T12:14:26.268Z,102304.97
2023-05-16T12:16:55.924Z,102314.25
2023-05-16T12:19:27.886Z,102311.16
2023-05-16T12:22:06.050Z,102313.44
2023-05-16T12:24:35.227Z,102319.66
2023-05-16T12:27:05.892Z,102317.84
2023-05-16T12:29:42.588Z,102320.63
2023-05-16T12:32:14.011Z,102316.53
2023-05-16T12:34:53.538Z,102313.84
2023-05-16T12:37:33.469Z,102320.00
2023-05-16T12:40:14.143Z,102317.25
2023-05-16T12:42:46.202Z,102317.00
2023-05-16T12:45:19.915Z,102315.97
2023-05-16T12:47:53.765Z,102319.47
2023-05-16T12:50:30.392Z,102317.78
2023-05-16T12:53:05.757Z,102313.78
2023-05-16T12:55:34.908Z,102320.59
2023-05-16T12:58:06.329Z,102318.44
2023-05-16T13:00:37.020Z,102329.03
2023-05-16T13:03:08.260Z,102312.97
2023-05-16T13:05:39.078Z,102314.19
2023-05-16T13:08:15.443Z,102313.78
2023-05-16T13:10:48.222Z,102317.00
2023-05-16T13:13:28.863Z,102315.63
2023-05-16T13:16:08.054Z,102317.69
2023-05-16T13:18:40.315Z,102321.16
2023-05-16T13:21:09.097Z,102323.84
2023-05-16T13:23:40.020Z,102310.97
2023-05-16T13:26:11.829Z,102323.81
2023-05-16T13:28:40.784Z,102313.19
2023-05-16T13:31:10.250Z,102309.94
2023-05-16T13:33:40.483Z,102309.06
2023-05-16T13:36:11.009Z,102303.91
2023-05-16T13:38:46.576Z,102313.78
2023-05-16T13:41:21.195Z,102320.13
2023-05-16T13:43:55.000Z,102319.88
2023-05-16T13:46:25.593Z,102315.44
2023-05-16T13:48:55.449Z,102311.03
2023-05-16T13:51:27.015Z,102304.03
2023-05-16T13:53:58.141Z,102307.38
2023-05-16T13:56:32.044Z,102310.00
2023-05-16T13:59:05.889Z,102318.72
2023-05-16T14:01:42.085Z,102321.63
2023-05-16T14:04:13.018Z,102315.81
2023-05-16T14:06:43.597Z,102323.00
2023-05-16T14:09:18.012Z,102315.09
2023-05-16T14:11:47.264Z,102318.63
2023-05-16T14:14:19.050Z,102313.03
2023-05-16T14:16:47.969Z,102322.16
2023-05-16T14:19:20.597Z,102316.91
2023-05-16T14:21:54.307Z,102321.50
2023-05-16T14:24:25.470Z,102315.34
2023-05-16T14:26:55.472Z,102324.56
2023-05-16T14:29:27.560Z,102326.03
2023-05-16T14:32:02.396Z,102330.81
2023-05-16T14:34:32.882Z,102329.81
2023-05-16T14:37:02.294Z,102324.16
2023-05-16T14:39:32.526Z,102320.09
2023-05-16T14:42:02.022Z,102325.78
2023-05-16T14:44:37.381Z,102330.63
2023-05-16T14:47:07.209Z,102321.38
2023-05-16T14:49:46.642Z,102330.91
2023-05-16T14:52:18.132Z,102333.88
2023-05-16T14:54:51.973Z,102324.75
2023-05-16T14:57:22.660Z,102339.34
2023-05-16T14:59:55.618Z,102323.22
2023-05-16T15:02:27.513Z,102325.16
2023-05-16T15:04:58.942Z,102325.97
2023-05-16T15:07:28.500Z,102332.00
2023-05-16T15:09:58.954Z,102324.94
2023-05-16T15:12:31.344Z,102342.09
2023-05-16T15:15:02.469Z,102339.00
2023-05-16T15:17:33.162Z,102342.38
2023-05-16T15:20:04.927Z,102345.91
2023-05-16T15:22:35.387Z,102338.75
2023-05-16T15:25:09.691Z,102335.81
2023-05-16T15:27:38.752Z,102334.84
2023-05-16T15:30:12.362Z,102340.50
2023-05-16T15:32:41.717Z,102341.88
2023-05-16T15:35:23.613Z,102342.91
2023-05-16T15:37:54.544Z,102344.44
2023-05-16T15:40:28.731Z,102344.84
2023-05-16T15:43:02.967Z,102347.31
2023-05-16T15:45:37.358Z,102364.03
2023-05-16T15:48:12.001Z,102349.06
2023-05-16T15:50:44.233Z,102355.13
2023-05-16T15:53:15.903Z,102342.78
2023-05-16T15:55:49.686Z,102346.94
2023-05-16T15:58:20.661Z,102347.38
2023-05-16T16:00:55.294Z,102348.84
2023-05-16T16:03:26.544Z,102355.16
2023-05-16T16:06:00.219Z,102354.97
2023-05-16T16:08:34.504Z,102348.03
2023-05-16T16:11:08.137Z,102349.16
2023-05-16T16:13:38.874Z,102358.91
2023-05-16T16:16:09.681Z,102355.34
2023-05-16T16:18:39.056Z,102353.81
2023-05-16T16:21:14.681Z,102359.69
2023-05-16T16:23:44.548Z,102349.53
2023-05-16T16:26:18.433Z,102350.34
2023-05-16T16:28:50.609Z,102348.91
2023-05-16T16:31:22.238Z,102347.56
2023-05-16T16:33:52.296Z,102351.84
2023-05-16T16:36:23.231Z,102360.06
2023-05-16T16:38:52.346Z,102354.56
2023-05-16T16:41:28.420Z,102358.97
2023-05-16T16:43:57.788Z,102363.56
2023-05-16T16:46:27.639Z,102361.31
2023-05-16T16:48:57.489Z,102364.94
2023-05-16T16:51:29.890Z,102358.56
2023-05-16T16:54:00.631Z,102368.44
2023-05-16T16:56:31.535Z,102375.16
2023-05-16T16:59:01.372Z,102369.34
2023-05-16T17:01:32.268Z,102382.94
2023-05-16T17:04:02.665Z,102380.06
2023-05-16T17:06:31.597Z,102382.41
2023-05-16T17:09:03.758Z,102382.97
2023-05-16T17:11:36.439Z,102388.06
2023-05-16T17:14:07.538Z,102394.59
2023-05-16T17:16:38.330Z,102395.66
2023-05-16T17:19:07.621Z,102387.63
2023-05-16T17:21:38.403Z,102398.53
2023-05-16T17:24:12.174Z,102396.84
2023-05-16T17:26:44.322Z,102395.84
2023-05-16T17:29:14.539Z,102407.00
2023-05-16T17:31:43.183Z,102406.41
2023-05-16T17:34:14.183Z,102415.97
2023-05-16T17:36:42.786Z,102405.28
2023-05-16T17:39:16.584Z,102409.28
2023-05-16T17:41:47.051Z,102413.97
2023-05-16T17:44:16.640Z,102405.28
2023-05-16T17:46:46.775Z,102411.31
2023-05-16T17:49:18.474Z,102410.97
2023-05-16T17:51:55.287Z,102416.38
2023-05-16T17:54:31.019Z,102419.44
2023-05-16T17:57:02.543Z,102422.69
2023-05-16T17:59:34.702Z,102424.09
2023-05-16T18:02:04.205Z,102432.59
2023-05-16T18:04:34.628Z,102431.69
2023-05-16T18:07:05.445Z,102436.53
2023-05-16T18:09:40.604Z,102441.09
2023-05-16T18:12:12.711Z,102435.97
2023-05-16T18:14:46.993Z,102433.91
2023-05-16T18:17:23.074Z,102428.38
2023-05-16T18:19:55.411Z,102427.78
2023-05-16T18:22:26.787Z,102442.88
2023-05-16T18:24:55.852Z,102444.00
2023-05-16T18:27:28.544Z,102440.09
2023-05-16T18:29:58.655Z,102444.03
2023-05-16T18:32:30.792Z,102448.63
2023-05-16T18:35:01.715Z,102456.59
2023-05-16T18:37:32.470Z,102458.25
2023-05-16T18:40:05.073Z,102467.66
2023-05-16T18:42:35.723Z,102462.94
2023-05-16T18:45:07.282Z,102462.00
2023-05-16T18:47:36.806Z,102472.84
2023-05-16T18:50:12.217Z,102465.44
2023-05-16T18:52:43.869Z,102462.22
2023-05-16T18:55:16.355Z,102469.44
2023-05-16T18:57:48.815Z,102466.41
2023-05-16T19:00:22.911Z,102471.44
2023-05-16T19:02:55.450Z,102468.91
2023-05-16T19:05:24.494Z,102475.13
2023-05-16T19:07:53.807Z,102476.13
2023-05-16T19:10:25.180Z,102483.34
2023-05-16T19:13:03.968Z,102488.91
2023-05-16T19:15:34.646Z,102486.78
2023-05-16T19:18:05.346Z,102485.03
2023-05-16T19:20:36.788Z,102491.63
2023-05-16T19:23:06.882Z,102488.28
2023-05-16T19:25:47.505Z,102494.13
2023-05-16T19:28:18.619Z,102497.50
2023-05-16T19:30:47.945Z,102497.84
2023-05-16T19:33:17.218Z,102497.06
2023-05-16T19:35:46.700Z,102507.28
2023-05-16T19:38:18.338Z,102503.88
2023-05-16T19:40:50.826Z,102510.47
2023-05-16T19:43:28.673Z,102508.13
2023-05-16T19:45:59.545Z,102499.31
2023-05-16T19:48:33.060Z,102515.19
2023-05-16T19:51:07.006Z,102502.94
2023-05-16T19:53:39.039Z,102508.53
2023-05-16T19:56:18.882Z,102510.28
2023-05-16T19:59:02.815Z,102508.78
2023-05-16T20:01:36.623Z,102513.72
2023-05-16T20:04:08.780Z,102508.97
2023-05-16T20:06:43.048Z,102516.97
2023-05-16T20:09:16.138Z,102516.44
2023-05-16T20:11:53.616Z,102513.81
2023-05-16T20:14:28.121Z,102519.03
2023-05-16T20:17:00.104Z,102526.03
2023-05-16T20:19:31.681Z,102526.66
2023-05-16T20:22:05.040Z,102532.50
2023-05-16T20:24:34.653Z,102533.19
2023-05-16T20:27:07.736Z,102529.72
2023-05-16T20:29:41.131Z,102541.00
2023-05-16T20:32:11.655Z,102536.94
2023-05-16T20:34:43.573Z,102535.88
2023-05-16T20:37:27.321Z,102538.69
2023-05-16T20:40:00.932Z,102544.31
2023-05-16T20:42:31.869Z,102538.22
2023-05-16T20:45:03.827Z,102545.72
2023-05-16T20:47:33.128Z,102543.84
2023-05-16T20:50:09.101Z,102545.13
2023-05-16T20:52:38.543Z,102549.03
2023-05-16T20:55:08.945Z,102544.09
2023-05-16T20:57:38.438Z,102541.56
2023-05-16T21:00:13.097Z,102550.91
2023-05-16T21:02:42.564Z,102554.53
2023-05-16T21:05:24.935Z,102554.34
2023-05-16T21:08:03.519Z,102564.53
2023-05-16T21:10:34.141Z,102562.81
2023-05-16T21:13:07.383Z,102565.16
2023-05-16T21:15:39.826Z,102564.28
2023-05-16T21:18:12.890Z,102566.97
2023-05-16T21:20:43.155Z,102563.50
2023-05-16T21:23:13.758Z,102561.16
2023-05-16T21:25:44.800Z,102564.88
2023-05-16T21:28:15.152Z,102564.44
2023-05-16T21:30:46.535Z,102553.22
2023-05-16T21:33:16.367Z,102568.63
2023-05-16T21:35:45.418Z,102566.88
2023-05-16T21:38:14.608Z,102562.66
2023-05-16T21:40:43.975Z,102572.53
2023-05-16T21:43:21.209Z,102577.41
2023-05-16T21:45:52.360Z,102577.38
2023-05-16T21:48:21.776Z,102572.16
2023-05-16T21:50:51.148Z,102583.00
2023-05-16T21:53:24.097Z,102589.75
2023-05-16T21:55:55.829Z,102585.97
2023-05-16T21:58:25.409Z,102586.44
2023-05-16T22:00:56.242Z,102588.09
2023-05-16T22:03:27.311Z,102591.16
2023-05-16T22:05:58.614Z,102586.56
2023-05-16T22:08:27.458Z,102596.44
2023-05-16T22:11:00.485Z,102595.19
2023-05-16T22:13:31.532Z,102593.59
2023-05-16T22:16:05.012Z,102592.78
2023-05-16T22:18:38.155Z,102600.72
2023-05-16T22:21:09.974Z,102600.53
2023-05-16T22:23:41.731Z,102592.13
2023-05-16T22:26:10.678Z,102606.69
2023-05-16T22:28:41.051Z,102602.50
2023-05-16T22:31:13.633Z,102593.31
2023-05-16T22:33:44.426Z,102600.28
2023-05-16T22:36:16.040Z,102604.59
2023-05-16T22:38:45.333Z,102602.44
2023-05-16T22:41:18.294Z,102587.63
2023-05-16T22:43:48.298Z,102600.28
2023-05-16T22:46:20.581Z,102598.63
2023-05-16T22:48:54.388Z,102606.59
2023-05-16T22:51:25.045Z,102599.97
2023-05-16T22:53:55.272Z,102597.00
2023-05-16T22:56:25.858Z,102598.94
2023-05-16T22:58:54.844Z,102616.81
2023-05-16T23:01:30.341Z,102611.50
2023-05-16T23:03:59.404Z,102617.25
2023-05-16T23:06:30.610Z,102610.28
2023-05-16T23:09:03.107Z,102608.41
2023-05-16T23:11:34.969Z,102626.59
2023-05-16T23:14:04.958Z,102609.25
2023-05-16T23:16:35.203Z,102615.94
2023-05-16T23:19:05.550Z,102614.38
2023-05-16T23:21:36.618Z,102620.53
2023-05-16T23:24:06.978Z,102617.56
2023-05-16T23:26:36.614Z,102621.41
2023-05-16T23:29:07.334Z,102610.66
2023-05-16T23:31:41.543Z,102618.53
2023-05-16T23:34:11.474Z,102615.25
2023-05-16T23:36:41.874Z,102618.06
2023-05-16T23:39:11.352Z,102622.84
2023-05-16T23:41:44.279Z,102627.06
2023-05-16T23:44:15.104Z,102624.63
2023-05-16T23:46:45.143Z,102623.59
2023-05-16T23:49:14.997Z,102635.47
2023-05-16T23:51:55.870Z,102628.25
2023-05-16T23:54:26.051Z,102639.25
2023-05-16T23:56:55.331Z,102630.41
2023-05-16T23:59:24.885Z,102619.06
